sensor_id;sensor_type;location;lat;lon;timestamp;P1;durP1;ratioP1;P2;durP2;ratioP2
35558;SDS011;21661;50.794;-1.066;2023-11-18T00:00:31;0.70;;;0.10;;
35558;SDS011;21661;50.794;-1.066;2023-11-18T00:02:56;0.55;;;0.20;;
35558;SDS011;21661;50.794;-1.066;2023-11-18T00:05:22;1.30;;;0.20;;
35558;SDS011;21661;50.794;-1.066;2023-11-18T00:07:48;0.88;;;0.20;;
35558;SDS011;21661;50.794;-1.066;2023-11-18T00:10:15;0.80;;;0.17;;
35558;SDS011;21661;50.794;-1.066;2023-11-18T00:12:42;1.42;;;0.13;;
35558;SDS011;21661;50.794;-1.066;2023-11-18T00:15:08;0.93;;;0.10;;
35558;SDS011;21661;50.794;-1.066;2023-11-18T00:17:36;1.65;;;0.20;;
35558;SDS011;21661;50.794;-1.066;2023-11-18T00:20:02;1.40;;;0.20;;
35558;SDS011;21661;50.794;-1.066;2023-11-18T00:22:35;0.47;;;0.10;;
35558;SDS011;21661;50.794;-1.066;2023-11-18T00:25:01;0.82;;;0.20;;
35558;SDS011;21661;50.794;-1.066;2023-11-18T00:27:30;1.13;;;0.10;;
35558;SDS011;21661;50.794;-1.066;2023-11-18T00:29:56;0.80;;;0.10;;
35558;SDS011;21661;50.794;-1.066;2023-11-18T00:32:22;1.25;;;0.20;;
35558;SDS011;21661;50.794;-1.066;2023-11-18T00:34:47;1.40;;;0.20;;
35558;SDS011;21661;50.794;-1.066;2023-11-18T00:37:13;0.47;;;0.10;;
35558;SDS011;21661;50.794;-1.066;2023-11-18T00:39:39;1.27;;;0.13;;
35558;SDS011;21661;50.794;-1.066;2023-11-18T00:42:04;0.90;;;0.13;;
35558;SDS011;21661;50.794;-1.066;2023-11-18T00:44:30;1.02;;;0.10;;
35558;SDS011;21661;50.794;-1.066;2023-11-18T00:46:56;1.85;;;0.20;;
35558;SDS011;21661;50.794;-1.066;2023-11-18T00:49:22;1.70;;;0.20;;
35558;SDS011;21661;50.794;-1.066;2023-11-18T00:51:48;2.25;;;0.20;;
35558;SDS011;21661;50.794;-1.066;2023-11-18T00:54:14;0.88;;;0.20;;
35558;SDS011;21661;50.794;-1.066;2023-11-18T00:56:39;1.58;;;0.20;;
35558;SDS011;21661;50.794;-1.066;2023-11-18T00:59:05;0.95;;;0.20;;
35558;SDS011;21661;50.794;-1.066;2023-11-18T01:01:31;1.30;;;0.20;;
35558;SDS011;21661;50.794;-1.066;2023-11-18T01:03:57;1.10;;;0.20;;
35558;SDS011;21661;50.794;-1.066;2023-11-18T01:06:24;1.15;;;0.22;;
35558;SDS011;21661;50.794;-1.066;2023-11-18T01:08:51;1.05;;;0.20;;
35558;SDS011;21661;50.794;-1.066;2023-11-18T01:11:17;0.57;;;0.10;;
35558;SDS011;21661;50.794;-1.066;2023-11-18T01:13:47;0.63;;;0.10;;
35558;SDS011;21661;50.794;-1.066;2023-11-18T01:16:14;1.05;;;0.10;;
35558;SDS011;21661;50.794;-1.066;2023-11-18T01:18:40;1.58;;;0.35;;
35558;SDS011;21661;50.794;-1.066;2023-11-18T01:21:06;2.15;;;0.40;;
35558;SDS011;21661;50.794;-1.066;2023-11-18T01:23:34;1.38;;;0.20;;
35558;SDS011;21661;50.794;-1.066;2023-11-18T01:26:00;2.05;;;0.30;;
35558;SDS011;21661;50.794;-1.066;2023-11-18T01:28:29;1.52;;;0.30;;
35558;SDS011;21661;50.794;-1.066;2023-11-18T01:30:57;1.42;;;0.30;;
35558;SDS011;21661;50.794;-1.066;2023-11-18T01:33:23;1.50;;;0.30;;
35558;SDS011;21661;50.794;-1.066;2023-11-18T01:35:50;1.60;;;0.30;;
35558;SDS011;21661;50.794;-1.066;2023-11-18T01:38:15;1.98;;;0.30;;
35558;SDS011;21661;50.794;-1.066;2023-11-18T01:40:41;0.88;;;0.20;;
35558;SDS011;21661;50.794;-1.066;2023-11-18T01:43:09;2.78;;;0.63;;
35558;SDS011;21661;50.794;-1.066;2023-11-18T01:45:37;1.25;;;0.20;;
35558;SDS011;21661;50.794;-1.066;2023-11-18T01:48:03;1.85;;;0.25;;
35558;SDS011;21661;50.794;-1.066;2023-11-18T01:50:29;2.53;;;0.38;;
35558;SDS011;21661;50.794;-1.066;2023-11-18T01:52:55;1.60;;;0.30;;
35558;SDS011;21661;50.794;-1.066;2023-11-18T01:55:20;2.22;;;0.30;;
35558;SDS011;21661;50.794;-1.066;2023-11-18T01:57:46;1.80;;;0.50;;
35558;SDS011;21661;50.794;-1.066;2023-11-18T02:00:12;0.95;;;0.28;;
35558;SDS011;21661;50.794;-1.066;2023-11-18T02:02:38;1.80;;;0.38;;
35558;SDS011;21661;50.794;-1.066;2023-11-18T02:05:04;1.23;;;0.25;;
35558;SDS011;21661;50.794;-1.066;2023-11-18T02:07:31;1.85;;;0.28;;
35558;SDS011;21661;50.794;-1.066;2023-11-18T02:09:58;1.88;;;0.20;;
35558;SDS011;21661;50.794;-1.066;2023-11-18T02:15:02;1.40;;;0.20;;
35558;SDS011;21661;50.794;-1.066;2023-11-18T02:17:34;1.88;;;0.30;;
35558;SDS011;21661;50.794;-1.066;2023-11-18T02:20:03;1.10;;;0.17;;
35558;SDS011;21661;50.794;-1.066;2023-11-18T02:22:40;3.17;;;0.38;;
35558;SDS011;21661;50.794;-1.066;2023-11-18T02:25:11;1.48;;;0.20;;
35558;SDS011;21661;50.794;-1.066;2023-11-18T02:27:40;1.25;;;0.30;;
35558;SDS011;21661;50.794;-1.066;2023-11-18T02:30:07;1.23;;;0.20;;
35558;SDS011;21661;50.794;-1.066;2023-11-18T02:32:39;1.27;;;0.25;;
35558;SDS011;21661;50.794;-1.066;2023-11-18T02:37:39;1.30;;;0.20;;
35558;SDS011;21661;50.794;-1.066;2023-11-18T02:40:08;1.23;;;0.50;;
35558;SDS011;21661;50.794;-1.066;2023-11-18T02:45:09;1.15;;;0.30;;
35558;SDS011;21661;50.794;-1.066;2023-11-18T02:47:41;0.95;;;0.10;;
35558;SDS011;21661;50.794;-1.066;2023-11-18T02:50:10;1.30;;;0.17;;
35558;SDS011;21661;50.794;-1.066;2023-11-18T02:52:37;1.30;;;0.10;;
35558;SDS011;21661;50.794;-1.066;2023-11-18T02:55:04;1.27;;;0.20;;
35558;SDS011;21661;50.794;-1.066;2023-11-18T02:57:31;0.73;;;0.20;;
35558;SDS011;21661;50.794;-1.066;2023-11-18T02:59:58;1.70;;;0.20;;
35558;SDS011;21661;50.794;-1.066;2023-11-18T03:02:25;1.17;;;0.10;;
35558;SDS011;21661;50.794;-1.066;2023-11-18T03:04:54;1.90;;;0.20;;
35558;SDS011;21661;50.794;-1.066;2023-11-18T03:07:20;1.23;;;0.30;;
35558;SDS011;21661;50.794;-1.066;2023-11-18T03:09:46;0.93;;;0.20;;
35558;SDS011;21661;50.794;-1.066;2023-11-18T03:12:12;0.60;;;0.10;;
35558;SDS011;21661;50.794;-1.066;2023-11-18T03:14:38;0.88;;;0.15;;
35558;SDS011;21661;50.794;-1.066;2023-11-18T03:17:03;1.10;;;0.20;;
35558;SDS011;21661;50.794;-1.066;2023-11-18T03:19:32;1.25;;;0.10;;
35558;SDS011;21661;50.794;-1.066;2023-11-18T03:21:59;1.17;;;0.22;;
35558;SDS011;21661;50.794;-1.066;2023-11-18T03:24:25;0.73;;;0.10;;
35558;SDS011;21661;50.794;-1.066;2023-11-18T03:26:51;0.93;;;0.10;;
35558;SDS011;21661;50.794;-1.066;2023-11-18T03:29:17;1.33;;;0.20;;
35558;SDS011;21661;50.794;-1.066;2023-11-18T03:31:42;1.45;;;0.20;;
35558;SDS011;21661;50.794;-1.066;2023-11-18T03:34:09;1.58;;;0.20;;
35558;SDS011;21661;50.794;-1.066;2023-11-18T03:36:35;1.30;;;0.30;;
35558;SDS011;21661;50.794;-1.066;2023-11-18T03:39:00;1.42;;;0.20;;
35558;SDS011;21661;50.794;-1.066;2023-11-18T03:41:26;1.45;;;0.25;;
35558;SDS011;21661;50.794;-1.066;2023-11-18T03:43:52;0.88;;;0.13;;
35558;SDS011;21661;50.794;-1.066;2023-11-18T03:46:17;1.15;;;0.13;;
35558;SDS011;21661;50.794;-1.066;2023-11-18T03:48:46;1.10;;;0.20;;
35558;SDS011;21661;50.794;-1.066;2023-11-18T03:51:11;1.25;;;0.30;;
35558;SDS011;21661;50.794;-1.066;2023-11-18T03:53:37;1.08;;;0.20;;
35558;SDS011;21661;50.794;-1.066;2023-11-18T03:56:03;1.25;;;0.22;;
35558;SDS011;21661;50.794;-1.066;2023-11-18T03:58:28;0.45;;;0.10;;
35558;SDS011;21661;50.794;-1.066;2023-11-18T04:00:54;0.80;;;0.10;;
35558;SDS011;21661;50.794;-1.066;2023-11-18T04:03:22;0.73;;;0.10;;
35558;SDS011;21661;50.794;-1.066;2023-11-18T04:05:48;0.60;;;0.10;;
35558;SDS011;21661;50.794;-1.066;2023-11-18T04:08:13;0.60;;;0.10;;
35558;SDS011;21661;50.794;-1.066;2023-11-18T04:10:39;0.88;;;0.10;;
35558;SDS011;21661;50.794;-1.066;2023-11-18T04:13:05;1.48;;;0.20;;
35558;SDS011;21661;50.794;-1.066;2023-11-18T04:15:30;0.38;;;0.10;;
35558;SDS011;21661;50.794;-1.066;2023-11-18T04:17:56;0.63;;;0.10;;
35558;SDS011;21661;50.794;-1.066;2023-11-18T04:20:22;0.75;;;0.10;;
35558;SDS011;21661;50.794;-1.066;2023-11-18T04:22:48;0.55;;;0.10;;
35558;SDS011;21661;50.794;-1.066;2023-11-18T04:25:13;0.75;;;0.10;;
35558;SDS011;21661;50.794;-1.066;2023-11-18T04:27:40;0.40;;;0.10;;
35558;SDS011;21661;50.794;-1.066;2023-11-18T04:30:05;2.13;;;0.20;;
35558;SDS011;21661;50.794;-1.066;2023-11-18T04:32:33;1.13;;;0.10;;
35558;SDS011;21661;50.794;-1.066;2023-11-18T04:34:59;0.47;;;0.00;;
35558;SDS011;21661;50.794;-1.066;2023-11-18T04:37:31;1.13;;;0.10;;
35558;SDS011;21661;50.794;-1.066;2023-11-18T04:39:58;0.50;;;0.13;;
35558;SDS011;21661;50.794;-1.066;2023-11-18T04:42:23;0.70;;;0.10;;
35558;SDS011;21661;50.794;-1.066;2023-11-18T04:44:49;1.10;;;0.20;;
35558;SDS011;21661;50.794;-1.066;2023-11-18T04:47:15;0.52;;;0.08;;
35558;SDS011;21661;50.794;-1.066;2023-11-18T04:49:43;1.08;;;0.17;;
35558;SDS011;21661;50.794;-1.066;2023-11-18T04:52:09;1.50;;;0.10;;
35558;SDS011;21661;50.794;-1.066;2023-11-18T04:54:35;0.90;;;0.10;;
35558;SDS011;21661;50.794;-1.066;2023-11-18T04:57:01;1.40;;;0.20;;
35558;SDS011;21661;50.794;-1.066;2023-11-18T04:59:27;0.77;;;0.10;;
35558;SDS011;21661;50.794;-1.066;2023-11-18T05:01:52;1.65;;;0.30;;
35558;SDS011;21661;50.794;-1.066;2023-11-18T05:04:18;0.60;;;0.15;;
35558;SDS011;21661;50.794;-1.066;2023-11-18T05:06:44;1.08;;;0.15;;
35558;SDS011;21661;50.794;-1.066;2023-11-18T05:09:10;1.45;;;0.30;;
35558;SDS011;21661;50.794;-1.066;2023-11-18T05:11:35;0.90;;;0.30;;
35558;SDS011;21661;50.794;-1.066;2023-11-18T05:14:01;0.88;;;0.20;;
35558;SDS011;21661;50.794;-1.066;2023-11-18T05:16:29;0.80;;;0.20;;
35558;SDS011;21661;50.794;-1.066;2023-11-18T05:18:55;0.77;;;0.10;;
35558;SDS011;21661;50.794;-1.066;2023-11-18T05:21:20;0.88;;;0.20;;
35558;SDS011;21661;50.794;-1.066;2023-11-18T05:23:46;0.70;;;0.10;;
35558;SDS011;21661;50.794;-1.066;2023-11-18T05:26:12;0.73;;;0.20;;
35558;SDS011;21661;50.794;-1.066;2023-11-18T05:28:39;1.10;;;0.20;;
35558;SDS011;21661;50.794;-1.066;2023-11-18T05:31:05;0.45;;;0.13;;
35558;SDS011;21661;50.794;-1.066;2023-11-18T05:33:31;1.10;;;0.20;;
35558;SDS011;21661;50.794;-1.066;2023-11-18T05:35:59;1.10;;;0.20;;
35558;SDS011;21661;50.794;-1.066;2023-11-18T05:38:24;0.68;;;0.20;;
35558;SDS011;21661;50.794;-1.066;2023-11-18T05:40:53;0.80;;;0.10;;
35558;SDS011;21661;50.794;-1.066;2023-11-18T05:43:31;0.50;;;0.10;;
35558;SDS011;21661;50.794;-1.066;2023-11-18T05:46:05;0.60;;;0.10;;
35558;SDS011;21661;50.794;-1.066;2023-11-18T05:48:45;1.17;;;0.20;;
35558;SDS011;21661;50.794;-1.066;2023-11-18T05:51:12;1.08;;;0.20;;
35558;SDS011;21661;50.794;-1.066;2023-11-18T05:53:41;0.90;;;0.20;;
35558;SDS011;21661;50.794;-1.066;2023-11-18T05:56:14;0.73;;;0.20;;
35558;SDS011;21661;50.794;-1.066;2023-11-18T05:58:43;0.57;;;0.10;;
35558;SDS011;21661;50.794;-1.066;2023-11-18T06:01:10;0.80;;;0.10;;
35558;SDS011;21661;50.794;-1.066;2023-11-18T06:03:36;0.88;;;0.17;;
35558;SDS011;21661;50.794;-1.066;2023-11-18T06:06:04;0.50;;;0.20;;
35558;SDS011;21661;50.794;-1.066;2023-11-18T06:08:32;1.23;;;0.20;;
35558;SDS011;21661;50.794;-1.066;2023-11-18T06:10:58;1.00;;;0.20;;
35558;SDS011;21661;50.794;-1.066;2023-11-18T06:13:24;9.75;;;0.88;;
35558;SDS011;21661;50.794;-1.066;2023-11-18T06:15:52;0.40;;;0.10;;
35558;SDS011;21661;50.794;-1.066;2023-11-18T06:18:18;0.95;;;0.10;;
35558;SDS011;21661;50.794;-1.066;2023-11-18T06:20:44;0.68;;;0.10;;
35558;SDS011;21661;50.794;-1.066;2023-11-18T06:23:09;0.75;;;0.20;;
35558;SDS011;21661;50.794;-1.066;2023-11-18T06:25:35;1.08;;;0.20;;
35558;SDS011;21661;50.794;-1.066;2023-11-18T06:28:01;0.35;;;0.10;;
35558;SDS011;21661;50.794;-1.066;2023-11-18T06:30:27;0.95;;;0.20;;
35558;SDS011;21661;50.794;-1.066;2023-11-18T06:32:53;0.77;;;0.15;;
35558;SDS011;21661;50.794;-1.066;2023-11-18T06:35:18;0.93;;;0.10;;
35558;SDS011;21661;50.794;-1.066;2023-11-18T06:37:46;0.93;;;0.20;;
35558;SDS011;21661;50.794;-1.066;2023-11-18T06:40:12;0.52;;;0.20;;
35558;SDS011;21661;50.794;-1.066;2023-11-18T06:42:44;0.70;;;0.10;;
35558;SDS011;21661;50.794;-1.066;2023-11-18T06:45:13;0.95;;;0.20;;
35558;SDS011;21661;50.794;-1.066;2023-11-18T06:47:40;0.88;;;0.30;;
35558;SDS011;21661;50.794;-1.066;2023-11-18T06:50:09;0.60;;;0.10;;
35558;SDS011;21661;50.794;-1.066;2023-11-18T06:52:39;0.68;;;0.13;;
35558;SDS011;21661;50.794;-1.066;2023-11-18T06:55:06;0.82;;;0.10;;
35558;SDS011;21661;50.794;-1.066;2023-11-18T06:57:32;0.57;;;0.10;;
35558;SDS011;21661;50.794;-1.066;2023-11-18T06:59:58;0.95;;;0.10;;
35558;SDS011;21661;50.794;-1.066;2023-11-18T07:02:24;0.50;;;0.10;;
35558;SDS011;21661;50.794;-1.066;2023-11-18T07:04:49;0.73;;;0.15;;
35558;SDS011;21661;50.794;-1.066;2023-11-18T07:07:15;0.35;;;0.10;;
35558;SDS011;21661;50.794;-1.066;2023-11-18T07:09:41;0.57;;;0.10;;
35558;SDS011;21661;50.794;-1.066;2023-11-18T07:12:09;0.73;;;0.10;;
35558;SDS011;21661;50.794;-1.066;2023-11-18T07:14:35;0.40;;;0.10;;
35558;SDS011;21661;50.794;-1.066;2023-11-18T07:17:00;0.88;;;0.10;;
35558;SDS011;21661;50.794;-1.066;2023-11-18T07:19:26;0.75;;;0.20;;
35558;SDS011;21661;50.794;-1.066;2023-11-18T07:21:53;0.25;;;0.00;;
35558;SDS011;21661;50.794;-1.066;2023-11-18T07:24:19;0.10;;;0.00;;
35558;SDS011;21661;50.794;-1.066;2023-11-18T07:26:45;1.00;;;0.10;;
35558;SDS011;21661;50.794;-1.066;2023-11-18T07:29:11;0.38;;;0.10;;
35558;SDS011;21661;50.794;-1.066;2023-11-18T07:31:36;0.40;;;0.10;;
35558;SDS011;21661;50.794;-1.066;2023-11-18T07:34:05;0.57;;;0.10;;
35558;SDS011;21661;50.794;-1.066;2023-11-18T07:36:31;0.65;;;0.10;;
35558;SDS011;21661;50.794;-1.066;2023-11-18T07:38:58;0.60;;;0.10;;
35558;SDS011;21661;50.794;-1.066;2023-11-18T07:41:26;0.40;;;0.10;;
35558;SDS011;21661;50.794;-1.066;2023-11-18T07:43:55;0.77;;;0.10;;
35558;SDS011;21661;50.794;-1.066;2023-11-18T07:46:24;0.80;;;0.20;;
35558;SDS011;21661;50.794;-1.066;2023-11-18T07:48:50;0.85;;;0.22;;
35558;SDS011;21661;50.794;-1.066;2023-11-18T07:51:20;0.70;;;0.10;;
35558;SDS011;21661;50.794;-1.066;2023-11-18T07:53:50;0.73;;;0.10;;
35558;SDS011;21661;50.794;-1.066;2023-11-18T07:56:16;1.00;;;0.25;;
35558;SDS011;21661;50.794;-1.066;2023-11-18T07:58:42;0.68;;;0.20;;
35558;SDS011;21661;50.794;-1.066;2023-11-18T08:01:11;0.65;;;0.20;;
35558;SDS011;21661;50.794;-1.066;2023-11-18T08:03:37;0.47;;;0.20;;
35558;SDS011;21661;50.794;-1.066;2023-11-18T08:06:03;0.95;;;0.20;;
35558;SDS011;21661;50.794;-1.066;2023-11-18T08:08:32;0.75;;;0.15;;
35558;SDS011;21661;50.794;-1.066;2023-11-18T08:11:04;1.83;;;0.40;;
35558;SDS011;21661;50.794;-1.066;2023-11-18T08:13:30;1.45;;;0.30;;
35558;SDS011;21661;50.794;-1.066;2023-11-18T08:15:56;1.20;;;0.30;;
35558;SDS011;21661;50.794;-1.066;2023-11-18T08:18:23;1.35;;;0.30;;
35558;SDS011;21661;50.794;-1.066;2023-11-18T08:20:49;1.05;;;0.20;;
35558;SDS011;21661;50.794;-1.066;2023-11-18T08:23:15;0.77;;;0.30;;
35558;SDS011;21661;50.794;-1.066;2023-11-18T08:25:40;0.55;;;0.13;;
35558;SDS011;21661;50.794;-1.066;2023-11-18T08:28:07;1.10;;;0.20;;
35558;SDS011;21661;50.794;-1.066;2023-11-18T08:30:33;0.80;;;0.20;;
35558;SDS011;21661;50.794;-1.066;2023-11-18T08:32:59;0.40;;;0.10;;
35558;SDS011;21661;50.794;-1.066;2023-11-18T08:35:25;0.38;;;0.10;;
35558;SDS011;21661;50.794;-1.066;2023-11-18T08:37:50;0.63;;;0.20;;
35558;SDS011;21661;50.794;-1.066;2023-11-18T08:40:17;0.70;;;0.20;;
35558;SDS011;21661;50.794;-1.066;2023-11-18T08:42:50;0.65;;;0.20;;
35558;SDS011;21661;50.794;-1.066;2023-11-18T08:45:17;0.57;;;0.17;;
35558;SDS011;21661;50.794;-1.066;2023-11-18T08:47:54;0.30;;;0.13;;
35558;SDS011;21661;50.794;-1.066;2023-11-18T08:50:21;0.57;;;0.20;;
35558;SDS011;21661;50.794;-1.066;2023-11-18T08:52:50;0.65;;;0.10;;
35558;SDS011;21661;50.794;-1.066;2023-11-18T08:55:23;0.60;;;0.13;;
35558;SDS011;21661;50.794;-1.066;2023-11-18T08:58:03;0.40;;;0.10;;
35558;SDS011;21661;50.794;-1.066;2023-11-18T09:00:50;0.15;;;0.10;;
35558;SDS011;21661;50.794;-1.066;2023-11-18T09:03:17;0.73;;;0.17;;
35558;SDS011;21661;50.794;-1.066;2023-11-18T09:05:58;1.02;;;0.10;;
35558;SDS011;21661;50.794;-1.066;2023-11-18T09:08:30;0.80;;;0.15;;
35558;SDS011;21661;50.794;-1.066;2023-11-18T09:13:30;0.08;;;0.00;;
35558;SDS011;21661;50.794;-1.066;2023-11-18T09:15:57;0.50;;;0.10;;
35558;SDS011;21661;50.794;-1.066;2023-11-18T09:18:25;0.28;;;0.10;;
35558;SDS011;21661;50.794;-1.066;2023-11-18T09:20:52;0.20;;;0.00;;
35558;SDS011;21661;50.794;-1.066;2023-11-18T09:23:20;0.30;;;0.03;;
35558;SDS011;21661;50.794;-1.066;2023-11-18T09:25:48;0.47;;;0.10;;
35558;SDS011;21661;50.794;-1.066;2023-11-18T09:28:14;0.13;;;0.08;;
35558;SDS011;21661;50.794;-1.066;2023-11-18T09:30:41;0.38;;;0.10;;
35558;SDS011;21661;50.794;-1.066;2023-11-18T09:33:15;0.43;;;0.10;;
35558;SDS011;21661;50.794;-1.066;2023-11-18T09:35:50;0.60;;;0.20;;
35558;SDS011;21661;50.794;-1.066;2023-11-18T09:38:29;0.38;;;0.10;;
35558;SDS011;21661;50.794;-1.066;2023-11-18T09:40:55;1.85;;;0.30;;
35558;SDS011;21661;50.794;-1.066;2023-11-18T09:43:23;0.20;;;0.00;;
35558;SDS011;21661;50.794;-1.066;2023-11-18T09:45:54;0.50;;;0.20;;
35558;SDS011;21661;50.794;-1.066;2023-11-18T09:48:21;0.47;;;0.10;;
35558;SDS011;21661;50.794;-1.066;2023-11-18T09:50:51;0.38;;;0.00;;
35558;SDS011;21661;50.794;-1.066;2023-11-18T09:53:18;0.25;;;0.08;;
35558;SDS011;21661;50.794;-1.066;2023-11-18T09:56:03;0.30;;;0.10;;
35558;SDS011;21661;50.794;-1.066;2023-11-18T09:58:40;0.52;;;0.10;;
35558;SDS011;21661;50.794;-1.066;2023-11-18T10:01:21;0.52;;;0.10;;
35558;SDS011;21661;50.794;-1.066;2023-11-18T10:03:53;0.40;;;0.10;;
35558;SDS011;21661;50.794;-1.066;2023-11-18T10:06:23;0.35;;;0.00;;
35558;SDS011;21661;50.794;-1.066;2023-11-18T10:08:51;0.28;;;0.10;;
35558;SDS011;21661;50.794;-1.066;2023-11-18T10:11:18;0.10;;;0.00;;
35558;SDS011;21661;50.794;-1.066;2023-11-18T10:13:48;0.10;;;0.00;;
35558;SDS011;21661;50.794;-1.066;2023-11-18T10:16:14;0.13;;;0.03;;
35558;SDS011;21661;50.794;-1.066;2023-11-18T10:18:39;0.10;;;0.00;;
35558;SDS011;21661;50.794;-1.066;2023-11-18T10:21:14;0.22;;;0.00;;
35558;SDS011;21661;50.794;-1.066;2023-11-18T10:23:58;0.20;;;0.00;;
35558;SDS011;21661;50.794;-1.066;2023-11-18T10:26:27;0.25;;;0.00;;
35558;SDS011;21661;50.794;-1.066;2023-11-18T10:28:54;0.00;;;0.00;;
35558;SDS011;21661;50.794;-1.066;2023-11-18T10:31:27;0.17;;;0.00;;
35558;SDS011;21661;50.794;-1.066;2023-11-18T10:33:53;0.47;;;0.00;;
35558;SDS011;21661;50.794;-1.066;2023-11-18T10:36:20;0.00;;;0.00;;
35558;SDS011;21661;50.794;-1.066;2023-11-18T10:38:50;0.20;;;0.00;;
35558;SDS011;21661;50.794;-1.066;2023-11-18T10:41:21;0.10;;;0.00;;
35558;SDS011;21661;50.794;-1.066;2023-11-18T10:43:48;0.03;;;0.00;;
35558;SDS011;21661;50.794;-1.066;2023-11-18T10:46:14;0.03;;;0.00;;
35558;SDS011;21661;50.794;-1.066;2023-11-18T10:48:44;0.10;;;0.00;;
35558;SDS011;21661;50.794;-1.066;2023-11-18T10:53:42;0.40;;;0.00;;
35558;SDS011;21661;50.794;-1.066;2023-11-18T10:56:26;0.20;;;0.00;;
35558;SDS011;21661;50.794;-1.066;2023-11-18T10:58:53;0.20;;;0.10;;
35558;SDS011;21661;50.794;-1.066;2023-11-18T11:03:53;0.00;;;0.00;;
35558;SDS011;21661;50.794;-1.066;2023-11-18T11:06:25;0.10;;;0.00;;
35558;SDS011;21661;50.794;-1.066;2023-11-18T11:08:55;0.35;;;0.00;;
35558;SDS011;21661;50.794;-1.066;2023-11-18T11:11:23;0.10;;;0.00;;
35558;SDS011;21661;50.794;-1.066;2023-11-18T11:13:58;1.45;;;0.13;;
35558;SDS011;21661;50.794;-1.066;2023-11-18T11:16:40;0.93;;;0.10;;
35558;SDS011;21661;50.794;-1.066;2023-11-18T11:19:08;0.15;;;0.00;;
35558;SDS011;21661;50.794;-1.066;2023-11-18T11:21:50;0.15;;;0.10;;
35558;SDS011;21661;50.794;-1.066;2023-11-18T11:24:25;0.10;;;0.00;;
35558;SDS011;21661;50.794;-1.066;2023-11-18T11:29:45;0.10;;;0.00;;
35558;SDS011;21661;50.794;-1.066;2023-11-18T11:35:00;0.10;;;0.00;;
35558;SDS011;21661;50.794;-1.066;2023-11-18T11:37:33;0.20;;;0.00;;
35558;SDS011;21661;50.794;-1.066;2023-11-18T11:40:01;0.10;;;0.00;;
35558;SDS011;21661;50.794;-1.066;2023-11-18T11:42:34;0.15;;;0.00;;
35558;SDS011;21661;50.794;-1.066;2023-11-18T11:45:00;0.13;;;0.00;;
35558;SDS011;21661;50.794;-1.066;2023-11-18T11:47:27;0.60;;;0.10;;
35558;SDS011;21661;50.794;-1.066;2023-11-18T11:50:11;0.40;;;0.10;;
35558;SDS011;21661;50.794;-1.066;2023-11-18T11:52:47;0.20;;;0.10;;
35558;SDS011;21661;50.794;-1.066;2023-11-18T11:55:23;0.52;;;0.13;;
35558;SDS011;21661;50.794;-1.066;2023-11-18T11:57:58;0.32;;;0.10;;
35558;SDS011;21661;50.794;-1.066;2023-11-18T12:00:24;0.40;;;0.10;;
35558;SDS011;21661;50.794;-1.066;2023-11-18T12:02:58;0.35;;;0.10;;
35558;SDS011;21661;50.794;-1.066;2023-11-18T12:05:29;0.10;;;0.00;;
35558;SDS011;21661;50.794;-1.066;2023-11-18T12:07:58;0.25;;;0.00;;
35558;SDS011;21661;50.794;-1.066;2023-11-18T12:10:27;0.45;;;0.10;;
35558;SDS011;21661;50.794;-1.066;2023-11-18T12:13:08;0.20;;;0.08;;
35558;SDS011;21661;50.794;-1.066;2023-11-18T12:15:51;0.20;;;0.10;;
35558;SDS011;21661;50.794;-1.066;2023-11-18T12:18:28;0.45;;;0.10;;
35558;SDS011;21661;50.794;-1.066;2023-11-18T12:20:56;0.30;;;0.10;;
35558;SDS011;21661;50.794;-1.066;2023-11-18T12:23:27;0.30;;;0.10;;
35558;SDS011;21661;50.794;-1.066;2023-11-18T12:25:53;0.80;;;0.20;;
35558;SDS011;21661;50.794;-1.066;2023-11-18T12:28:20;0.70;;;0.10;;
35558;SDS011;21661;50.794;-1.066;2023-11-18T12:30:51;0.47;;;0.10;;
35558;SDS011;21661;50.794;-1.066;2023-11-18T12:33:21;0.88;;;0.20;;
35558;SDS011;21661;50.794;-1.066;2023-11-18T12:41:10;1.13;;;0.30;;
35558;SDS011;21661;50.794;-1.066;2023-11-18T12:44:26;1.33;;;0.20;;
35558;SDS011;21661;50.794;-1.066;2023-11-18T12:46:52;1.15;;;0.40;;
35558;SDS011;21661;50.794;-1.066;2023-11-18T12:49:37;1.38;;;0.30;;
35558;SDS011;21661;50.794;-1.066;2023-11-18T12:52:06;1.30;;;0.30;;
35558;SDS011;21661;50.794;-1.066;2023-11-18T12:54:33;1.10;;;0.30;;
35558;SDS011;21661;50.794;-1.066;2023-11-18T12:57:02;1.15;;;0.30;;
35558;SDS011;21661;50.794;-1.066;2023-11-18T12:59:31;0.52;;;0.15;;
35558;SDS011;21661;50.794;-1.066;2023-11-18T13:02:00;0.60;;;0.20;;
35558;SDS011;21661;50.794;-1.066;2023-11-18T13:04:32;0.65;;;0.13;;
35558;SDS011;21661;50.794;-1.066;2023-11-18T13:06:59;0.63;;;0.15;;
35558;SDS011;21661;50.794;-1.066;2023-11-18T13:09:25;0.63;;;0.20;;
35558;SDS011;21661;50.794;-1.066;2023-11-18T13:11:57;0.22;;;0.10;;
35558;SDS011;21661;50.794;-1.066;2023-11-18T13:14:27;0.40;;;0.10;;
35558;SDS011;21661;50.794;-1.066;2023-11-18T13:16:55;0.73;;;0.20;;
35558;SDS011;21661;50.794;-1.066;2023-11-18T13:19:25;0.60;;;0.20;;
35558;SDS011;21661;50.794;-1.066;2023-11-18T13:21:58;0.70;;;0.20;;
35558;SDS011;21661;50.794;-1.066;2023-11-18T13:24:24;0.47;;;0.20;;
35558;SDS011;21661;50.794;-1.066;2023-11-18T13:26:52;1.08;;;0.40;;
35558;SDS011;21661;50.794;-1.066;2023-11-18T13:29:19;1.15;;;0.30;;
35558;SDS011;21661;50.794;-1.066;2023-11-18T13:31:46;1.55;;;0.30;;
35558;SDS011;21661;50.794;-1.066;2023-11-18T13:34:16;0.90;;;0.30;;
35558;SDS011;21661;50.794;-1.066;2023-11-18T13:36:48;1.00;;;0.30;;
35558;SDS011;21661;50.794;-1.066;2023-11-18T13:39:18;1.00;;;0.30;;
35558;SDS011;21661;50.794;-1.066;2023-11-18T13:41:46;0.80;;;0.32;;
35558;SDS011;21661;50.794;-1.066;2023-11-18T13:44:35;1.02;;;0.40;;
35558;SDS011;21661;50.794;-1.066;2023-11-18T13:47:06;1.35;;;0.40;;
35558;SDS011;21661;50.794;-1.066;2023-11-18T13:49:32;1.42;;;0.30;;
35558;SDS011;21661;50.794;-1.066;2023-11-18T13:52:02;1.88;;;0.43;;
35558;SDS011;21661;50.794;-1.066;2023-11-18T13:54:28;1.00;;;0.32;;
35558;SDS011;21661;50.794;-1.066;2023-11-18T13:56:54;1.75;;;0.43;;
35558;SDS011;21661;50.794;-1.066;2023-11-18T13:59:23;1.20;;;0.30;;
35558;SDS011;21661;50.794;-1.066;2023-11-18T14:01:53;1.27;;;0.32;;
35558;SDS011;21661;50.794;-1.066;2023-11-18T14:04:22;1.50;;;0.30;;
35558;SDS011;21661;50.794;-1.066;2023-11-18T14:06:51;1.80;;;0.40;;
35558;SDS011;21661;50.794;-1.066;2023-11-18T14:09:18;1.45;;;0.45;;
35558;SDS011;21661;50.794;-1.066;2023-11-18T14:11:46;1.17;;;0.40;;
35558;SDS011;21661;50.794;-1.066;2023-11-18T14:14:13;1.05;;;0.40;;
35558;SDS011;21661;50.794;-1.066;2023-11-18T14:16:40;1.48;;;0.40;;
35558;SDS011;21661;50.794;-1.066;2023-11-18T14:19:05;1.10;;;0.35;;
35558;SDS011;21661;50.794;-1.066;2023-11-18T14:21:31;1.23;;;0.40;;
35558;SDS011;21661;50.794;-1.066;2023-11-18T14:23:57;1.10;;;0.28;;
35558;SDS011;21661;50.794;-1.066;2023-11-18T14:26:27;0.93;;;0.30;;
35558;SDS011;21661;50.794;-1.066;2023-11-18T14:28:54;0.93;;;0.20;;
35558;SDS011;21661;50.794;-1.066;2023-11-18T14:31:20;1.15;;;0.30;;
35558;SDS011;21661;50.794;-1.066;2023-11-18T14:33:47;1.15;;;0.30;;
35558;SDS011;21661;50.794;-1.066;2023-11-18T14:36:13;1.25;;;0.30;;
35558;SDS011;21661;50.794;-1.066;2023-11-18T14:38:39;1.23;;;0.32;;
35558;SDS011;21661;50.794;-1.066;2023-11-18T14:41:05;1.48;;;0.40;;
35558;SDS011;21661;50.794;-1.066;2023-11-18T14:43:32;1.17;;;0.30;;
35558;SDS011;21661;50.794;-1.066;2023-11-18T14:45:58;1.13;;;0.30;;
35558;SDS011;21661;50.794;-1.066;2023-11-18T14:48:25;0.60;;;0.20;;
35558;SDS011;21661;50.794;-1.066;2023-11-18T14:50:51;1.15;;;0.30;;
35558;SDS011;21661;50.794;-1.066;2023-11-18T14:53:17;0.65;;;0.30;;
35558;SDS011;21661;50.794;-1.066;2023-11-18T14:55:42;0.95;;;0.30;;
35558;SDS011;21661;50.794;-1.066;2023-11-18T14:58:09;1.45;;;0.35;;
35558;SDS011;21661;50.794;-1.066;2023-11-18T15:00:37;0.93;;;0.30;;
35558;SDS011;21661;50.794;-1.066;2023-11-18T15:03:02;1.10;;;0.30;;
35558;SDS011;21661;50.794;-1.066;2023-11-18T15:05:28;1.10;;;0.40;;